Time;durP1;ratioP1;P1;durP2;ratioP2;P2;SDS_P1;SDS_P2;PMS_P1;PMS_P2;Temp;Humidity;BMP_temperature;BMP_pressure;BME280_temperature;BME280_humidity;BME280_pressure;Samples;Min_cycle;Max_cycle;Signal;HPM_P1;HPM_P2
2020/12/13 00:02:08;;;;;;;25.77;12.73;;;;;;;1.57;79.03;98191.34;126124;1098;104867;-72
2020/12/13 00:04:37;;;;;;;26.70;12.70;;;;;;;1.53;79.27;98192.41;126135;1098;104414;-71
2020/12/13 00:07:06;;;;;;;25.80;12.77;;;;;;;1.47;79.45;98193.55;125942;1100;104583;-72
2020/12/13 00:09:34;;;;;;;27.60;14.33;;;;;;;1.46;79.52;98199.70;126165;1098;104485;-73
2020/12/13 00:12:03;;;;;;;28.17;14.10;;;;;;;1.47;79.64;98196.16;126123;1099;104420;-73
2020/12/13 00:14:31;;;;;;;26.43;12.80;;;;;;;1.48;79.76;98195.24;126170;1098;104432;-73
2020/12/13 00:16:58;;;;;;;26.63;13.30;;;;;;;1.51;79.77;98202.13;126135;1100;104436;-74
2020/12/13 00:19:27;;;;;;;23.30;12.25;;;;;;;1.50;80.25;98203.05;125855;1099;104475;-72
2020/12/13 00:21:56;;;;;;;25.60;13.30;;;;;;;1.51;79.56;98202.13;125901;1099;104439;-73
2020/12/13 00:24:23;;;;;;;26.00;13.30;;;;;;;1.52;79.75;98205.58;126060;1099;104910;-73
2020/12/13 00:26:51;;;;;;;26.10;13.20;;;;;;;1.51;79.28;98196.88;125861;1098;104570;-75
2020/12/13 00:29:18;;;;;;;27.30;12.27;;;;;;;1.50;79.42;98208.28;126124;1098;104413;-74
2020/12/13 00:31:45;;;;;;;31.00;16.53;;;;;;;1.46;79.17;98206.73;126031;1099;104511;-74
2020/12/13 00:34:12;;;;;;;23.70;12.05;;;;;;;1.39;79.48;98205.34;126073;1098;104586;-74
2020/12/13 00:36:39;;;;;;;22.63;10.77;;;;;;;1.28;79.40;98211.94;125878;1100;104485;-75
2020/12/13 00:39:06;;;;;;;21.85;10.45;;;;;;;1.15;78.98;98219.55;126080;1098;104850;-74
2020/12/13 00:41:33;;;;;;;24.30;11.73;;;;;;;1.04;79.30;98214.83;126156;1098;104417;-73
2020/12/13 00:44:00;;;;;;;22.40;10.47;;;;;;;0.99;79.34;98211.58;126134;1098;104573;-74
2020/12/13 00:46:27;;;;;;;25.57;11.90;;;;;;;0.92;79.48;98217.19;126873;1098;104602;-73
2020/12/13 00:48:55;;;;;;;22.83;11.17;;;;;;;0.93;79.36;98218.89;126121;1093;104473;-74
2020/12/13 00:51:24;;;;;;;25.60;12.98;;;;;;;0.91;79.56;98213.70;125874;1101;104545;-74
2020/12/13 00:53:51;;;;;;;27.10;13.80;;;;;;;0.98;79.77;98211.67;126141;1098;105008;-74
2020/12/13 00:56:19;;;;;;;26.27;14.17;;;;;;;1.06;79.53;98213.91;126130;1098;104608;-73
2020/12/13 00:58:46;;;;;;;29.07;13.97;;;;;;;1.11;79.60;98214.55;126125;1098;104542;-74
2020/12/13 01:01:13;;;;;;;28.37;13.60;;;;;;;1.08;79.42;98212.90;126167;1098;104471;-74
2020/12/13 01:03:40;;;;;;;25.67;12.90;;;;;;;1.09;80.09;98217.22;126196;1098;104426;-73
2020/12/13 01:06:07;;;;;;;24.00;12.33;;;;;;;1.10;79.96;98223.32;126175;1098;104561;-72
2020/12/13 01:08:34;;;;;;;25.13;13.30;;;;;;;1.03;79.54;98222.75;126117;1098;104482;-73
2020/12/13 01:11:01;;;;;;;26.75;12.90;;;;;;;1.03;79.98;98220.99;126119;1098;104550;-72
2020/12/13 01:13:29;;;;;;;23.67;11.20;;;;;;;1.05;79.54;98218.28;126091;1093;104434;-72
2020/12/13 01:15:59;;;;;;;21.55;10.00;;;;;;;1.00;79.60;98225.53;126066;1098;104550;-73
2020/12/13 01:18:27;;;;;;;25.20;12.23;;;;;;;0.93;79.07;98218.89;125847;1099;104417;-72
2020/12/13 01:20:56;;;;;;;27.23;13.30;;;;;;;0.93;79.33;98230.19;126093;1098;104417;-75
2020/12/13 01:23:23;;;;;;;27.13;13.30;;;;;;;0.94;79.92;98231.06;126052;1098;104962;-71
2020/12/13 01:25:50;;;;;;;25.00;11.95;;;;;;;0.98;80.02;98228.21;126001;1098;104526;-71
2020/12/13 01:28:17;;;;;;;25.52;13.00;;;;;;;1.00;79.83;98228.98;125895;1100;104469;-71
2020/12/13 01:30:44;;;;;;;24.53;13.40;;;;;;;1.04;79.82;98235.78;125871;1100;104443;-72
2020/12/13 01:33:11;;;;;;;26.50;13.20;;;;;;;1.09;79.59;98232.10;125960;1098;104442;-74
2020/12/13 01:35:39;;;;;;;28.27;14.87;;;;;;;1.14;79.68;98236.19;126050;1098;104475;-75
2020/12/13 01:38:06;;;;;;;27.00;13.83;;;;;;;1.20;79.93;98237.69;125911;1098;104544;-75
2020/12/13 01:40:33;;;;;;;29.07;14.75;;;;;;;1.24;79.91;98233.13;125966;1098;104869;-74
2020/12/13 01:43:00;;;;;;;24.40;11.60;;;;;;;1.27;79.66;98236.45;126093;1098;104427;-76
2020/12/13 01:45:27;;;;;;;26.60;14.07;;;;;;;1.19;79.96;98234.20;126093;1098;104487;-74
2020/12/13 01:47:54;;;;;;;24.90;11.77;;;;;;;1.11;79.53;98232.87;126115;1098;104443;-74
2020/12/13 01:50:47;;;;;;;28.67;14.37;;;;;;;1.06;79.72;98237.48;125886;1098;104596;-74
2020/12/13 01:53:24;;;;;;;25.73;13.37;;;;;;;1.11;79.77;98236.33;125915;1099;104419;-74
2020/12/13 01:55:56;;;;;;;29.37;15.33;;;;;;;1.18;79.69;98242.15;125928;1098;104471;-74
2020/12/13 01:58:27;;;;;;;29.33;13.90;;;;;;;1.25;79.78;98245.31;125849;1100;104525;-72
2020/12/13 02:01:04;;;;;;;26.30;13.73;;;;;;;1.29;79.75;98244.25;126057;1098;104459;-73
2020/12/13 02:03:48;;;;;;;26.93;13.03;;;;;;;1.23;79.74;98241.91;127020;1101;104673;-72
2020/12/13 02:06:22;;;;;;;27.50;13.23;;;;;;;1.26;80.11;98249.63;126155;1098;104417;-72
2020/12/13 02:08:51;;;;;;;25.80;12.60;;;;;;;1.27;80.06;98248.71;126265;1099;104523;-73
2020/12/13 02:11:19;;;;;;;22.00;9.70;;;;;;;1.21;79.40;98247.25;125976;1100;104558;-72
2020/12/13 02:13:50;;;;;;;27.17;13.17;;;;;;;1.09;79.33;98248.65;126160;1100;104423;-73
2020/12/13 02:16:19;;;;;;;25.47;11.97;;;;;;;1.01;79.53;98253.42;126209;1098;104599;-73
2020/12/13 02:18:47;;;;;;;28.60;15.27;;;;;;;0.95;79.81;98251.92;126291;1098;104871;-71
2020/12/13 02:21:14;;;;;;;22.90;11.27;;;;;;;0.96;79.73;98255.41;126134;1098;104452;-74
2020/12/13 02:23:42;;;;;;;25.10;12.67;;;;;;;0.89;79.77;98247.83;126140;1098;104477;-72
2020/12/13 02:26:14;;;;;;;24.20;11.80;;;;;;;0.83;79.61;98255.96;126200;1098;104449;-72
2020/12/13 02:28:43;;;;;;;25.90;13.55;;;;;;;0.79;79.81;98259.64;126154;1098;104493;-74
2020/12/13 02:31:10;;;;;;;26.60;13.43;;;;;;;0.80;79.90;98257.88;127886;1099;103049;-75
2020/12/13 02:33:41;;;;;;;27.77;12.87;;;;;;;0.77;79.94;98256.23;126096;1098;104590;-75
2020/12/13 02:36:08;;;;;;;23.40;10.47;;;;;;;0.79;79.92;98250.95;126016;1098;104481;-75
2020/12/13 02:38:36;;;;;;;28.20;13.80;;;;;;;0.77;80.00;98261.48;126066;1098;104484;-75
2020/12/13 02:41:03;;;;;;;24.20;11.87;;;;;;;0.78;79.82;98263.17;126073;1098;104622;-74
2020/12/13 02:43:30;;;;;;;22.07;10.60;;;;;;;0.79;79.61;98270.11;126069;1098;104548;-74
2020/12/13 02:45:57;;;;;;;24.77;11.33;;;;;;;0.70;79.67;98266.16;125900;1100;104552;-75
2020/12/13 02:48:25;;;;;;;27.00;12.17;;;;;;;0.69;80.13;98267.07;125825;1100;104887;-74
2020/12/13 02:50:52;;;;;;;25.77;13.13;;;;;;;0.76;79.85;98264.18;125862;1100;104446;-73
2020/12/13 02:53:19;;;;;;;29.70;15.90;;;;;;;0.81;80.16;98268.27;126042;1098;104554;-73
2020/12/13 02:55:46;;;;;;;27.27;13.67;;;;;;;0.86;80.01;98263.68;125860;1100;104942;-74
2020/12/13 02:58:13;;;;;;;28.62;14.43;;;;;;;0.92;80.08;98265.16;126131;1098;104548;-74
2020/12/13 03:00:40;;;;;;;23.30;10.67;;;;;;;0.98;79.70;98264.04;125903;1101;104522;-75
2020/12/13 03:03:07;;;;;;;25.40;11.47;;;;;;;0.89;79.81;98263.54;126095;1100;104548;-73
2020/12/13 03:05:35;;;;;;;22.70;11.07;;;;;;;0.84;79.61;98273.38;125880;1098;104641;-75
2020/12/13 03:08:03;;;;;;;25.00;12.37;;;;;;;0.88;79.77;98274.06;125930;1100;104500;-73
2020/12/13 03:10:29;;;;;;;23.43;11.43;;;;;;;0.96;79.98;98277.19;126019;1098;104452;-75
2020/12/13 03:12:56;;;;;;;24.32;11.30;;;;;;;0.98;79.78;98277.14;125862;1100;104419;-73
2020/12/13 03:15:23;;;;;;;21.35;8.95;;;;;;;0.94;79.90;98279.03;126084;1093;104452;-73
2020/12/13 03:17:51;;;;;;;22.67;10.50;;;;;;;0.87;79.61;98270.62;125849;1100;104500;-74
2020/12/13 03:20:18;;;;;;;21.20;9.37;;;;;;;0.85;79.54;98276.83;125885;1098;104525;-74
2020/12/13 03:22:46;;;;;;;23.20;11.30;;;;;;;0.82;79.65;98279.58;125897;1098;104519;-74
2020/12/13 03:25:13;;;;;;;23.57;11.23;;;;;;;0.81;79.88;98278.74;126010;1098;104449;-74
2020/12/13 03:27:40;;;;;;;27.07;13.07;;;;;;;0.86;80.04;98276.77;126146;1098;104574;-74
2020/12/13 03:30:09;;;;;;;24.00;11.33;;;;;;;0.86;79.85;98281.14;126037;1098;104548;-73
2020/12/13 03:32:36;;;;;;;23.33;10.10;;;;;;;0.79;79.79;98283.20;125994;1097;104413;-73
2020/12/13 03:35:04;;;;;;;24.10;10.95;;;;;;;0.73;79.82;98288.71;126105;1098;104532;-72
2020/12/13 03:37:32;;;;;;;24.83;11.57;;;;;;;0.72;79.78;98293.11;126116;1098;104499;-73
2020/12/13 03:39:59;;;;;;;21.85;8.80;;;;;;;0.75;80.04;98302.58;125902;1100;104987;-72
2020/12/13 03:42:26;;;;;;;22.85;10.93;;;;;;;0.70;79.98;98294.95;126048;1098;104621;-73
2020/12/13 03:44:52;;;;;;;25.77;12.80;;;;;;;0.72;79.97;98295.73;126042;1098;104439;-72
2020/12/13 03:47:19;;;;;;;26.87;14.00;;;;;;;0.79;80.33;98296.29;126100;1098;104849;-72
2020/12/13 03:49:47;;;;;;;29.90;13.27;;;;;;;0.86;80.27;98299.47;126051;1098;104475;-72
2020/12/13 03:52:14;;;;;;;26.40;13.00;;;;;;;0.94;80.02;98292.13;125928;1098;104462;-75
2020/12/13 03:54:42;;;;;;;27.23;13.00;;;;;;;1.01;79.94;98303.19;125985;1098;104548;-72
2020/12/13 03:57:09;;;;;;;26.27;12.58;;;;;;;1.08;79.89;98298.50;125940;1100;104546;-73
2020/12/13 03:59:35;;;;;;;23.37;11.27;;;;;;;1.12;79.90;98293.03;125960;1100;104565;-72
2020/12/13 04:02:04;;;;;;;25.65;11.88;;;;;;;1.14;80.17;98300.84;125934;1098;104448;-72
2020/12/13 04:04:32;;;;;;;26.37;11.57;;;;;;;1.15;80.11;98297.30;125977;1100;104474;-70
2020/12/13 04:06:59;;;;;;;23.60;10.40;;;;;;;1.13;79.70;98307.84;126004;1100;104445;-71
2020/12/13 04:09:25;;;;;;;20.77;9.27;;;;;;;1.02;79.72;98300.48;126056;1099;104439;-71
2020/12/13 04:11:52;;;;;;;21.52;9.63;;;;;;;0.94;80.08;98305.22;125967;1100;104478;-71
2020/12/13 04:14:19;;;;;;;23.00;11.03;;;;;;;0.87;79.58;98306.41;125844;1100;104433;-70
2020/12/13 04:16:46;;;;;;;22.98;10.45;;;;;;;0.85;80.04;98309.11;126139;1093;104442;-71
2020/12/13 04:19:14;;;;;;;23.40;10.97;;;;;;;0.81;79.92;98318.02;126035;1098;104529;-70
2020/12/13 04:21:42;;;;;;;24.40;10.87;;;;;;;0.72;79.71;98319.29;125990;1098;104567;-70
2020/12/13 04:24:09;;;;;;;24.53;11.77;;;;;;;0.69;79.99;98311.57;126062;1098;104420;-72
2020/12/13 04:26:36;;;;;;;27.40;12.90;;;;;;;0.77;80.18;98318.23;125851;1098;104683;-70
2020/12/13 04:29:04;;;;;;;28.20;13.60;;;;;;;0.84;80.14;98320.50;126053;1098;104423;-70
2020/12/13 04:31:31;;;;;;;28.87;12.83;;;;;;;0.92;80.35;98328.00;125881;1100;104506;-71
2020/12/13 04:33:58;;;;;;;28.17;11.80;;;;;;;0.97;80.12;98325.19;126065;1098;104609;-70
2020/12/13 04:36:25;;;;;;;24.53;11.50;;;;;;;1.00;80.06;98325.05;126057;1098;104449;-71
2020/12/13 04:38:52;;;;;;;26.37;12.60;;;;;;;1.00;80.15;98318.03;125899;1098;104615;-71
2020/12/13 04:41:20;;;;;;;24.13;11.40;;;;;;;1.04;80.02;98322.21;126135;1098;104522;-72
2020/12/13 04:43:48;;;;;;;26.07;12.37;;;;;;;1.08;80.21;98325.53;126094;1098;104420;-73
2020/12/13 04:46:16;;;;;;;24.45;11.83;;;;;;;1.11;80.01;98320.16;126076;1098;104651;-73
2020/12/13 04:48:43;;;;;;;24.07;11.13;;;;;;;1.14;79.76;98330.48;126262;1095;104423;-73
2020/12/13 04:51:10;;;;;;;24.23;10.77;;;;;;;1.12;79.96;98331.49;125933;1100;104445;-73
2020/12/13 04:53:39;;;;;;;25.00;11.90;;;;;;;1.11;79.97;98335.03;125899;1100;104532;-71
2020/12/13 04:56:10;;;;;;;23.33;10.50;;;;;;;1.09;80.13;98340.33;126006;1099;104869;-72
2020/12/13 04:58:37;;;;;;;23.07;10.13;;;;;;;1.06;79.90;98340.47;126139;1100;104433;-72
2020/12/13 05:01:05;;;;;;;22.87;10.40;;;;;;;1.09;79.76;98340.33;125871;1100;104480;-72
2020/12/13 05:03:34;;;;;;;25.63;11.57;;;;;;;1.13;80.09;98357.61;125894;1100;104439;-72
2020/12/13 05:06:02;;;;;;;23.23;10.40;;;;;;;1.17;80.08;98347.86;125832;1101;104618;-71
2020/12/13 05:08:30;;;;;;;25.60;12.30;;;;;;;1.18;80.34;98347.77;125841;1101;104434;-72
2020/12/13 05:10:58;;;;;;;25.23;11.10;;;;;;;1.22;79.93;98348.50;125801;1101;104565;-72
2020/12/13 05:13:25;;;;;;;26.53;11.43;;;;;;;1.22;80.07;98351.12;125864;1101;104609;-71
2020/12/13 05:15:53;;;;;;;26.30;12.53;;;;;;;1.25;80.39;98350.11;125918;1093;104561;-72
2020/12/13 05:18:20;;;;;;;26.17;12.43;;;;;;;1.28;80.43;98356.05;125786;1101;104576;-73
2020/12/13 05:20:48;;;;;;;24.50;11.10;;;;;;;1.25;80.00;98357.97;125840;1101;104551;-71
2020/12/13 05:23:18;;;;;;;22.87;10.47;;;;;;;1.20;79.71;98358.20;125845;1101;104558;-71
2020/12/13 05:25:45;;;;;;;23.73;10.23;;;;;;;1.11;79.66;98359.44;125866;1101;104458;-72
2020/12/13 05:28:17;;;;;;;21.95;9.73;;;;;;;1.04;79.58;98364.13;125835;1101;104468;-73
2020/12/13 05:30:46;;;;;;;25.50;11.83;;;;;;;0.92;79.75;98362.05;125836;1101;104435;-73
2020/12/13 05:33:25;;;;;;;25.97;12.77;;;;;;;0.89;80.04;98370.03;125883;1101;104512;-74
2020/12/13 05:36:09;;;;;;;27.40;12.70;;;;;;;0.96;79.96;98370.63;125924;1101;104420;-72
2020/12/13 05:38:39;;;;;;;27.32;12.73;;;;;;;1.00;80.13;98369.58;125884;1100;104427;-72
2020/12/13 05:41:09;;;;;;;28.20;12.37;;;;;;;1.04;80.10;98376.34;125888;1101;104483;-72
2020/12/13 05:51:59;;;;;;;27.93;11.90;;;;;;;1.14;80.12;98377.64;125806;1100;104558;-73
2020/12/13 05:54:29;;;;;;;28.00;12.70;;;;;;;1.11;80.27;98384.80;125944;1101;104461;-73
2020/12/13 05:57:02;;;;;;;29.50;13.85;;;;;;;1.08;80.33;98390.17;125909;1101;104557;-72
2020/12/13 05:59:31;;;;;;;27.90;12.60;;;;;;;1.04;79.77;98386.83;125945;1101;104614;-72
2020/12/13 06:02:00;;;;;;;26.93;12.03;;;;;;;1.06;79.80;98381.53;125872;1101;104555;-73
2020/12/13 06:04:31;;;;;;;26.27;12.87;;;;;;;1.04;80.32;98385.08;125879;1101;104554;-74
2020/12/13 06:07:04;;;;;;;23.00;10.00;;;;;;;1.08;80.40;98390.17;125886;1101;104417;-75
2020/12/13 06:09:36;;;;;;;26.77;12.17;;;;;;;1.03;80.18;98390.36;125864;1101;104545;-74
2020/12/13 06:12:13;;;;;;;23.27;10.00;;;;;;;1.00;79.85;98401.84;126312;1093;104427;-73
2020/12/13 06:14:42;;;;;;;24.47;10.47;;;;;;;1.01;80.18;98393.06;125840;1101;104548;-73
2020/12/13 06:17:09;;;;;;;24.37;11.00;;;;;;;1.04;79.84;98397.30;125796;1101;104467;-72
2020/12/13 06:19:40;;;;;;;25.43;11.43;;;;;;;1.07;80.11;98394.55;125913;1101;104557;-71
2020/12/13 06:22:14;;;;;;;26.00;12.07;;;;;;;1.08;79.98;98391.02;125857;1101;104492;-73
2020/12/13 06:24:45;;;;;;;24.97;10.77;;;;;;;1.08;79.75;98392.80;125929;1101;104427;-73
2020/12/13 06:27:13;;;;;;;24.80;11.50;;;;;;;1.01;80.01;98398.30;125874;1100;104923;-72
2020/12/13 06:29:42;;;;;;;24.93;11.17;;;;;;;1.00;80.22;98403.62;125830;1101;104893;-72
2020/12/13 06:32:09;;;;;;;26.07;11.43;;;;;;;0.99;80.36;98407.99;126093;1101;104458;-72
2020/12/13 06:34:45;;;;;;;25.20;11.67;;;;;;;1.00;80.09;98411.48;125901;1101;104481;-72
2020/12/13 06:37:12;;;;;;;26.57;11.80;;;;;;;1.02;80.00;98409.61;125902;1101;104490;-72
2020/12/13 06:39:44;;;;;;;27.20;12.90;;;;;;;1.02;80.35;98418.34;125874;1101;104567;-75
2020/12/13 06:42:13;;;;;;;28.27;12.37;;;;;;;1.03;80.30;98409.56;125824;1101;104426;-71
2020/12/13 06:44:40;;;;;;;27.57;12.80;;;;;;;0.99;80.22;98421.09;125818;1101;104529;-72
2020/12/13 06:47:24;;;;;;;28.13;12.40;;;;;;;0.96;80.38;98426.45;125839;1098;104503;-71
2020/12/13 06:49:54;;;;;;;30.08;13.20;;;;;;;0.96;80.40;98429.08;125937;1098;104500;-74
2020/12/13 06:52:34;;;;;;;27.63;12.70;;;;;;;0.98;80.14;98422.01;125928;1099;104667;-74
2020/12/13 06:55:04;;;;;;;26.53;12.23;;;;;;;0.98;79.68;98429.03;125957;1098;104420;-74
2020/12/13 06:57:34;;;;;;;26.37;10.97;;;;;;;0.91;79.77;98422.36;125864;1101;104420;-76
2020/12/13 07:00:07;;;;;;;24.67;10.77;;;;;;;0.92;79.75;98426.67;125935;1100;104464;-75
2020/12/13 07:02:46;;;;;;;27.10;11.77;;;;;;;0.89;79.80;98428.51;125960;1100;104621;-72
2020/12/13 07:05:14;;;;;;;27.43;11.97;;;;;;;0.91;79.79;98431.05;125856;1101;105639;-73
2020/12/13 07:07:42;;;;;;;28.07;12.13;;;;;;;0.89;79.91;98432.88;125926;1101;104488;-75
2020/12/13 07:10:09;;;;;;;24.67;11.20;;;;;;;0.87;80.24;98440.81;125890;1101;104420;-74
2020/12/13 07:12:37;;;;;;;25.80;11.75;;;;;;;0.84;79.78;98437.45;125931;1101;104570;-74
2020/12/13 07:15:18;;;;;;;28.10;12.90;;;;;;;0.82;79.94;98439.29;125941;1101;104503;-75
2020/12/13 07:17:47;;;;;;;30.53;13.83;;;;;;;0.85;79.95;98437.41;125885;1101;104427;-74
2020/12/13 07:20:16;;;;;;;27.13;12.97;;;;;;;0.86;80.17;98440.86;125886;1101;104478;-74
2020/12/13 07:22:43;;;;;;;25.60;11.57;;;;;;;0.86;80.15;98438.24;125921;1101;104528;-78
2020/12/13 07:25:11;;;;;;;27.17;12.60;;;;;;;0.86;80.07;98446.97;125878;1101;104603;-73
2020/12/13 07:27:41;;;;;;;28.60;12.33;;;;;;;0.88;80.21;98439.89;125905;1101;104917;-75
2020/12/13 07:30:12;;;;;;;28.37;13.53;;;;;;;0.86;80.11;98449.58;125902;1101;104481;-77
2020/12/13 07:32:39;;;;;;;31.90;15.83;;;;;;;0.88;79.76;98452.13;125882;1101;104538;-76
2020/12/13 07:35:15;;;;;;;29.53;14.63;;;;;;;0.90;79.87;98452.91;125902;1101;104561;-75
2020/12/13 07:37:45;;;;;;;30.67;14.53;;;;;;;0.89;80.03;98459.06;125873;1101;104952;-74
2020/12/13 07:40:13;;;;;;;32.80;16.17;;;;;;;0.90;80.28;98458.14;125914;1100;104481;-72
2020/12/13 07:43:01;;;;;;;35.40;17.87;;;;;;;0.92;80.18;98463.34;125957;1098;104429;-73
2020/12/13 07:45:29;;;;;;;32.37;15.83;;;;;;;0.92;79.99;98464.17;125905;1098;104426;-73
2020/12/13 07:48:02;;;;;;;35.48;17.92;;;;;;;0.94;80.12;98462.34;125871;1101;104493;-74
2020/12/13 07:50:34;;;;;;;28.93;13.97;;;;;;;0.93;80.35;98465.03;125886;1101;104580;-72
2020/12/13 07:53:02;;;;;;;29.90;13.27;;;;;;;0.93;79.88;98458.02;125909;1101;104656;-74
2020/12/13 07:55:30;;;;;;;30.77;15.03;;;;;;;0.96;80.12;98462.29;125887;1101;104561;-75
2020/12/13 07:57:57;;;;;;;29.35;13.03;;;;;;;0.96;79.67;98459.67;125870;1101;104423;-74
2020/12/13 08:00:26;;;;;;;37.53;17.00;;;;;;;0.94;79.93;98462.34;125799;1097;104513;-74
2020/12/13 08:02:57;;;;;;;39.00;18.60;;;;;;;0.94;80.33;98457.09;125828;1101;104426;-74
2020/12/13 08:05:28;;;;;;;32.97;15.97;;;;;;;0.93;80.24;98458.02;125859;1100;104529;-76
2020/12/13 08:07:59;;;;;;;34.70;15.47;;;;;;;0.94;80.38;98461.50;125880;1101;104455;-75
2020/12/13 08:10:30;;;;;;;30.03;12.97;;;;;;;0.95;79.74;98455.34;125904;1101;104666;-74
2020/12/13 08:12:57;;;;;;;26.73;11.63;;;;;;;0.94;80.12;98464.13;125819;1101;104535;-73
2020/12/13 08:15:24;;;;;;;24.93;11.17;;;;;;;0.92;79.75;98465.95;125825;1096;104522;-74
2020/12/13 08:18:08;;;;;;;75.27;38.20;;;;;;;0.90;79.99;98466.00;125858;1101;104426;-76
2020/12/13 08:20:45;;;;;;;32.87;15.27;;;;;;;0.94;80.00;98471.98;125879;1101;104539;-74
2020/12/13 08:23:13;;;;;;;27.93;12.47;;;;;;;0.96;79.76;98470.14;125846;1101;104484;-75
2020/12/13 08:25:42;;;;;;;26.93;12.50;;;;;;;0.99;80.24;98475.25;125848;1101;104427;-75
2020/12/13 08:28:12;;;;;;;27.80;11.67;;;;;;;1.02;79.98;98475.09;125849;1101;104497;-74
2020/12/13 08:30:39;;;;;;;26.93;11.17;;;;;;;1.05;80.18;98482.82;125875;1101;104573;-75
2020/12/13 08:33:10;;;;;;;25.17;10.83;;;;;;;1.06;80.08;98479.28;125868;1101;104583;-74
2020/12/13 08:35:37;;;;;;;23.97;10.93;;;;;;;1.08;80.10;98481.85;125851;1101;104427;-75
2020/12/13 08:38:04;;;;;;;27.48;12.15;;;;;;;1.08;80.41;98482.69;125865;1101;104533;-74
2020/12/13 08:40:37;;;;;;;26.67;12.40;;;;;;;1.11;80.06;98481.72;125831;1100;104538;-74
2020/12/13 08:43:05;;;;;;;31.30;13.80;;;;;;;1.13;79.92;98487.75;125949;1100;105035;-74
2020/12/13 08:45:34;;;;;;;25.80;12.30;;;;;;;1.16;79.89;98490.23;125902;1093;104580;-74
2020/12/13 08:48:09;;;;;;;30.47;14.20;;;;;;;1.09;80.42;98492.25;125845;1101;104481;-74
2020/12/13 08:50:40;;;;;;;31.83;15.07;;;;;;;1.07;80.03;98488.01;125871;1101;104491;-74
2020/12/13 08:53:27;;;;;;;33.00;15.85;;;;;;;1.06;79.94;98497.62;125828;1101;104485;-75
2020/12/13 08:56:13;;;;;;;35.40;16.97;;;;;;;1.07;79.94;98496.70;126022;1100;104464;-75
2020/12/13 08:59:01;;;;;;;33.13;16.30;;;;;;;1.08;80.25;98495.78;125850;1091;104679;-75
2020/12/13 09:01:55;;;;;;;32.80;15.23;;;;;;;1.11;80.25;98487.80;125854;1093;104480;-81
2020/12/13 09:04:25;;;;;;;31.93;15.43;;;;;;;1.15;79.98;98484.13;125839;1093;104513;-81
2020/12/13 09:06:58;;;;;;;33.47;15.50;;;;;;;1.19;80.14;98490.11;126057;1093;104445;-81
2020/12/13 09:09:32;;;;;;;36.03;16.90;;;;;;;1.22;80.34;98496.97;125873;1093;104602;-81
2020/12/13 09:12:02;;;;;;;33.80;16.20;;;;;;;1.26;79.80;98488.06;125886;1093;104423;-84
2020/12/13 09:14:34;;;;;;;39.10;18.93;;;;;;;1.27;80.12;98489.76;125821;1093;104465;-83
2020/12/13 09:17:02;;;;;;;45.63;22.83;;;;;;;1.28;80.42;98489.67;125892;1093;104424;-84
2020/12/13 09:19:30;;;;;;;43.73;20.23;;;;;;;1.33;80.02;98490.33;125867;1093;104484;-81
2020/12/13 09:22:00;;;;;;;36.60;18.43;;;;;;;1.36;80.40;98491.98;125762;1093;104416;-81
2020/12/13 09:24:35;;;;;;;35.27;17.27;;;;;;;1.38;80.40;98487.52;125796;1098;105037;-82
2020/12/13 09:27:18;;;;;;;29.43;13.83;;;;;;;1.42;79.96;98496.95;125721;1093;104672;-80
2020/12/13 09:29:49;;;;;;;30.00;13.27;;;;;;;1.43;79.77;98497.79;125694;1101;104554;-81
2020/12/13 09:32:19;;;;;;;31.93;13.90;;;;;;;1.45;80.61;98494.17;125816;1093;104580;-82
2020/12/13 09:34:48;;;;;;;30.03;14.73;;;;;;;1.49;80.30;98497.52;125814;1100;104579;-80
2020/12/13 09:37:19;;;;;;;28.60;13.27;;;;;;;1.52;80.33;98494.77;125742;1094;104426;-83
2020/12/13 09:39:47;;;;;;;33.23;15.07;;;;;;;1.53;80.06;98493.84;125675;1093;104477;-83
2020/12/13 09:42:16;;;;;;;32.37;16.20;;;;;;;1.55;79.99;98499.87;125754;1100;104446;-83
2020/12/13 09:44:49;;;;;;;38.63;18.30;;;;;;;1.58;79.74;98494.49;125747;1101;104420;-82
2020/12/13 09:47:16;;;;;;;36.03;18.27;;;;;;;1.60;79.82;98492.66;125791;1101;104584;-77
2020/12/13 09:49:44;;;;;;;34.43;17.20;;;;;;;1.63;80.19;98502.14;125838;1093;103250;-81
2020/12/13 09:52:11;;;;;;;35.17;17.53;;;;;;;1.62;80.25;98501.30;125693;1101;104436;-81
2020/12/13 09:54:38;;;;;;;42.67;20.63;;;;;;;1.61;80.57;98499.59;125692;1101;104577;-81
2020/12/13 09:57:05;;;;;;;40.48;21.07;;;;;;;1.63;79.93;98492.48;125696;1098;104551;-83
2020/12/13 09:59:32;;;;;;;40.10;21.77;;;;;;;1.64;79.93;98498.59;125648;1100;104901;-85
2020/12/13 10:01:58;;;;;;;39.85;20.75;;;;;;;1.68;80.54;98500.16;126178;1100;104583;-84
2020/12/13 10:04:27;;;;;;;37.10;19.70;;;;;;;1.70;80.23;98489.59;125729;1101;104559;-82
2020/12/13 10:09:21;;;;;;;34.73;18.10;;;;;;;1.69;80.08;98494.00;126093;1093;104426;-84
2020/12/13 10:11:48;;;;;;;35.83;19.10;;;;;;;1.66;80.41;98495.89;125686;1096;105250;-80
2020/12/13 10:14:15;;;;;;;35.93;17.63;;;;;;;1.68;80.34;98496.67;125646;1100;104493;-80
2020/12/13 10:16:44;;;;;;;35.77;18.10;;;;;;;1.70;80.30;98494.84;125282;1100;104503;-82
2020/12/13 10:19:11;;;;;;;36.97;17.57;;;;;;;1.68;80.10;98492.30;125533;1096;104554;-79
2020/12/13 10:21:39;;;;;;;37.60;19.47;;;;;;;1.68;80.28;98494.92;125646;1096;105045;-80
2020/12/13 10:24:07;;;;;;;34.87;18.03;;;;;;;1.70;79.59;98497.45;125696;1093;104585;-80
2020/12/13 10:26:37;;;;;;;35.40;18.10;;;;;;;1.63;79.63;98492.48;125609;1100;104481;-80
2020/12/13 10:29:06;;;;;;;39.37;18.93;;;;;;;1.67;80.29;98500.22;125668;1093;105085;-78
2020/12/13 10:31:35;;;;;;;38.53;19.63;;;;;;;1.70;80.40;98502.70;125702;1100;104551;-78
2020/12/13 10:34:05;;;;;;;35.60;18.13;;;;;;;1.72;79.79;98493.86;125734;1093;104420;-77
2020/12/13 10:36:34;;;;;;;35.60;18.27;;;;;;;1.75;80.29;98496.34;125672;1100;104455;-77
2020/12/13 10:39:04;;;;;;;35.33;17.53;;;;;;;1.78;79.70;98496.20;125561;1100;104522;-80
2020/12/13 10:41:32;;;;;;;39.67;20.97;;;;;;;1.76;80.27;98495.42;125591;1101;104528;-80
2020/12/13 10:44:00;;;;;;;41.93;19.47;;;;;;;1.74;79.85;98492.02;125638;1101;104621;-82
2020/12/13 10:46:27;;;;;;;42.77;22.40;;;;;;;1.75;79.90;98492.86;125708;1101;104465;-80
2020/12/13 10:48:55;;;;;;;39.93;20.47;;;;;;;1.79;80.12;98499.66;125609;1101;104904;-83
2020/12/13 10:51:22;;;;;;;42.43;20.50;;;;;;;1.82;80.04;98496.91;125665;1101;104477;-82
2020/12/13 10:53:49;;;;;;;42.87;22.67;;;;;;;1.84;79.78;98496.81;126140;1100;104512;-84
2020/12/13 10:56:17;;;;;;;41.65;22.22;;;;;;;1.86;79.95;98495.84;125694;1101;104561;-85
2020/12/13 10:58:46;;;;;;;47.63;25.13;;;;;;;1.87;79.77;98496.67;125633;1100;104465;-83
2020/12/13 11:01:13;;;;;;;42.87;22.77;;;;;;;1.87;80.26;98492.30;125697;1101;104566;-84
2020/12/13 11:03:42;;;;;;;43.77;23.67;;;;;;;1.88;80.70;98498.38;125916;1100;104449;-86
2020/12/13 11:06:10;;;;;;;42.40;22.83;;;;;;;1.89;80.45;98492.22;126231;1101;104440;-85
2020/12/13 11:08:37;;;;;;;42.47;22.13;;;;;;;1.92;80.20;98494.70;125634;1101;105439;-82
2020/12/13 11:11:06;;;;;;;44.90;24.53;;;;;;;1.91;79.66;98495.62;125635;1100;105000;-80
2020/12/13 11:13:34;;;;;;;43.43;22.47;;;;;;;1.90;80.00;98488.67;125762;1093;104504;-85
2020/12/13 11:16:02;;;;;;;45.07;23.20;;;;;;;1.89;80.33;98497.45;125811;1101;104544;-81
2020/12/13 11:18:30;;;;;;;45.97;24.30;;;;;;;1.91;80.29;98498.24;125916;1101;104417;-81
2020/12/13 11:20:58;;;;;;;43.73;23.83;;;;;;;1.91;79.72;98504.35;125765;1096;104587;-82
2020/12/13 11:23:27;;;;;;;42.63;22.93;;;;;;;1.93;80.17;98507.75;125754;1093;104490;-80
2020/12/13 11:25:54;;;;;;;44.53;23.87;;;;;;;1.96;80.43;98505.91;125863;1101;104423;-83
2020/12/13 11:28:21;;;;;;;40.33;22.30;;;;;;;1.96;80.09;98512.00;126115;1093;104491;-83
2020/12/13 11:30:50;;;;;;;41.47;23.03;;;;;;;1.95;80.19;98502.42;126157;1093;104417;-80